Terminal Aerodrome Forecast
Issued by NWS

Home | Current Version | Previous Version | Text Only | Print | Product List | Glossary On
Versions: 1 2 3 4 5 6 7 8 9 10 11 12 13 14 15 16 17 18 19 20
000
FTUS46 KSTO 201157
TAFSCK
TAF
KSCK 201157Z 2012/2112 15018G25KT 3SM RA BKN009 OVC025
     FM201500 14020G30KT 3SM RA BKN012 OVC025
     FM210100 16035G48KT 5SM -RA OVC025
     FM210300 17038G50KT 6SM -RA BR OVC015=

USA.gov is the U.S. government's official web portal to all federal, state and local government web resources and services.